sensor_id;sensor_type;location;lat;lon;timestamp;P1;durP1;ratioP1;P2;durP2;ratioP2
13406;SDS011;6774;48.208;10.766;2023-04-07T00:00:10;2.30;;;2.10;;
13406;SDS011;6774;48.208;10.766;2023-04-07T00:02:38;2.50;;;2.30;;
13406;SDS011;6774;48.208;10.766;2023-04-07T00:05:10;2.77;;;2.57;;
13406;SDS011;6774;48.208;10.766;2023-04-07T00:07:37;1.83;;;1.73;;
13406;SDS011;6774;48.208;10.766;2023-04-07T00:10:18;1.53;;;1.40;;
13406;SDS011;6774;48.208;10.766;2023-04-07T00:12:47;1.80;;;1.20;;
13406;SDS011;6774;48.208;10.766;2023-04-07T00:15:14;1.77;;;1.30;;
13406;SDS011;6774;48.208;10.766;2023-04-07T00:17:42;1.80;;;1.70;;
13406;SDS011;6774;48.208;10.766;2023-04-07T00:20:11;1.47;;;1.37;;
13406;SDS011;6774;48.208;10.766;2023-04-07T00:22:39;1.50;;;1.40;;
13406;SDS011;6774;48.208;10.766;2023-04-07T00:25:07;0.97;;;0.83;;
13406;SDS011;6774;48.208;10.766;2023-04-07T00:27:35;1.63;;;1.53;;
13406;SDS011;6774;48.208;10.766;2023-04-07T00:30:05;1.70;;;1.60;;
13406;SDS011;6774;48.208;10.766;2023-04-07T00:32:33;1.37;;;1.00;;
13406;SDS011;6774;48.208;10.766;2023-04-07T00:35:02;1.87;;;1.70;;
13406;SDS011;6774;48.208;10.766;2023-04-07T00:37:30;1.33;;;1.23;;
13406;SDS011;6774;48.208;10.766;2023-04-07T00:39:58;1.37;;;1.27;;
13406;SDS011;6774;48.208;10.766;2023-04-07T00:42:26;1.83;;;1.50;;
13406;SDS011;6774;48.208;10.766;2023-04-07T00:44:53;2.10;;;1.90;;
13406;SDS011;6774;48.208;10.766;2023-04-07T00:47:23;1.80;;;1.70;;
13406;SDS011;6774;48.208;10.766;2023-04-07T00:49:51;1.80;;;1.70;;
13406;SDS011;6774;48.208;10.766;2023-04-07T00:52:18;1.87;;;1.73;;
13406;SDS011;6774;48.208;10.766;2023-04-07T00:54:52;1.70;;;1.60;;
13406;SDS011;6774;48.208;10.766;2023-04-07T00:57:20;1.83;;;1.70;;
13406;SDS011;6774;48.208;10.766;2023-04-07T00:59:48;3.20;;;1.70;;
13406;SDS011;6774;48.208;10.766;2023-04-07T01:02:19;2.37;;;2.17;;
13406;SDS011;6774;48.208;10.766;2023-04-07T01:04:54;1.87;;;1.77;;
13406;SDS011;6774;48.208;10.766;2023-04-07T01:07:31;1.87;;;1.77;;
13406;SDS011;6774;48.208;10.766;2023-04-07T01:10:09;1.60;;;1.43;;
13406;SDS011;6774;48.208;10.766;2023-04-07T01:12:51;2.03;;;1.80;;
13406;SDS011;6774;48.208;10.766;2023-04-07T01:15:24;2.37;;;2.27;;
13406;SDS011;6774;48.208;10.766;2023-04-07T01:17:58;2.87;;;1.63;;
13406;SDS011;6774;48.208;10.766;2023-04-07T01:20:32;3.57;;;1.57;;
13406;SDS011;6774;48.208;10.766;2023-04-07T01:23:03;2.90;;;2.23;;
13406;SDS011;6774;48.208;10.766;2023-04-07T01:25:36;2.07;;;1.87;;
13406;SDS011;6774;48.208;10.766;2023-04-07T01:28:40;1.70;;;1.60;;
13406;SDS011;6774;48.208;10.766;2023-04-07T01:31:17;2.10;;;1.90;;
13406;SDS011;6774;48.208;10.766;2023-04-07T01:33:45;2.87;;;2.67;;
13406;SDS011;6774;48.208;10.766;2023-04-07T01:36:14;2.70;;;2.50;;
13406;SDS011;6774;48.208;10.766;2023-04-07T01:38:43;7.33;;;3.33;;
13406;SDS011;6774;48.208;10.766;2023-04-07T01:41:12;5.57;;;2.20;;
13406;SDS011;6774;48.208;10.766;2023-04-07T01:43:42;2.40;;;2.27;;
13406;SDS011;6774;48.208;10.766;2023-04-07T01:46:12;2.83;;;2.63;;
13406;SDS011;6774;48.208;10.766;2023-04-07T01:48:42;2.90;;;2.70;;
13406;SDS011;6774;48.208;10.766;2023-04-07T01:51:10;2.40;;;2.20;;
13406;SDS011;6774;48.208;10.766;2023-04-07T01:53:42;2.63;;;2.43;;
13406;SDS011;6774;48.208;10.766;2023-04-07T01:56:11;1.87;;;1.77;;
13406;SDS011;6774;48.208;10.766;2023-04-07T01:58:40;1.93;;;1.67;;
13406;SDS011;6774;48.208;10.766;2023-04-07T02:01:10;2.97;;;2.77;;
13406;SDS011;6774;48.208;10.766;2023-04-07T02:03:42;2.50;;;2.30;;
13406;SDS011;6774;48.208;10.766;2023-04-07T02:06:16;2.73;;;2.53;;
13406;SDS011;6774;48.208;10.766;2023-04-07T02:08:49;3.23;;;2.33;;
13406;SDS011;6774;48.208;10.766;2023-04-07T02:11:20;2.73;;;1.73;;
13406;SDS011;6774;48.208;10.766;2023-04-07T02:13:55;2.20;;;2.10;;
13406;SDS011;6774;48.208;10.766;2023-04-07T02:16:29;4.43;;;3.90;;
13406;SDS011;6774;48.208;10.766;2023-04-07T02:19:01;2.87;;;1.50;;
13406;SDS011;6774;48.208;10.766;2023-04-07T02:21:46;2.27;;;1.97;;
13406;SDS011;6774;48.208;10.766;2023-04-07T02:24:17;1.77;;;1.40;;
13406;SDS011;6774;48.208;10.766;2023-04-07T02:26:46;2.60;;;2.40;;
13406;SDS011;6774;48.208;10.766;2023-04-07T02:29:14;3.57;;;3.27;;
13406;SDS011;6774;48.208;10.766;2023-04-07T02:31:42;2.17;;;1.90;;
13406;SDS011;6774;48.208;10.766;2023-04-07T02:34:12;8.53;;;2.13;;
13406;SDS011;6774;48.208;10.766;2023-04-07T02:36:39;2.20;;;2.07;;
13406;SDS011;6774;48.208;10.766;2023-04-07T02:39:07;1.53;;;1.43;;
13406;SDS011;6774;48.208;10.766;2023-04-07T02:41:36;1.53;;;1.43;;
13406;SDS011;6774;48.208;10.766;2023-04-07T02:44:03;2.23;;;2.13;;
13406;SDS011;6774;48.208;10.766;2023-04-07T02:46:31;2.00;;;1.90;;
13406;SDS011;6774;48.208;10.766;2023-04-07T02:48:59;3.13;;;2.77;;
13406;SDS011;6774;48.208;10.766;2023-04-07T02:51:28;1.53;;;1.40;;
13406;SDS011;6774;48.208;10.766;2023-04-07T02:53:56;1.90;;;1.70;;
13406;SDS011;6774;48.208;10.766;2023-04-07T02:56:24;2.13;;;2.03;;
13406;SDS011;6774;48.208;10.766;2023-04-07T02:58:51;1.63;;;1.53;;
13406;SDS011;6774;48.208;10.766;2023-04-07T03:01:19;2.80;;;2.10;;
13406;SDS011;6774;48.208;10.766;2023-04-07T03:03:47;1.87;;;1.77;;
13406;SDS011;6774;48.208;10.766;2023-04-07T03:06:20;2.97;;;2.70;;
13406;SDS011;6774;48.208;10.766;2023-04-07T03:09:02;2.40;;;2.20;;
13406;SDS011;6774;48.208;10.766;2023-04-07T03:11:30;3.00;;;2.23;;
13406;SDS011;6774;48.208;10.766;2023-04-07T03:13:59;1.77;;;1.67;;
13406;SDS011;6774;48.208;10.766;2023-04-07T03:16:29;2.60;;;2.50;;
13406;SDS011;6774;48.208;10.766;2023-04-07T03:19:05;2.17;;;2.03;;
13406;SDS011;6774;48.208;10.766;2023-04-07T03:21:36;3.70;;;2.43;;
13406;SDS011;6774;48.208;10.766;2023-04-07T03:24:06;2.30;;;2.20;;
13406;SDS011;6774;48.208;10.766;2023-04-07T03:26:34;3.03;;;2.83;;
13406;SDS011;6774;48.208;10.766;2023-04-07T03:29:05;3.67;;;3.37;;
13406;SDS011;6774;48.208;10.766;2023-04-07T03:31:32;4.30;;;3.90;;
13406;SDS011;6774;48.208;10.766;2023-04-07T03:34:00;3.70;;;3.60;;
13406;SDS011;6774;48.208;10.766;2023-04-07T03:36:28;2.50;;;2.30;;
13406;SDS011;6774;48.208;10.766;2023-04-07T03:39:00;2.73;;;2.53;;
13406;SDS011;6774;48.208;10.766;2023-04-07T03:41:30;2.50;;;2.30;;
13406;SDS011;6774;48.208;10.766;2023-04-07T03:43:57;2.00;;;1.90;;
13406;SDS011;6774;48.208;10.766;2023-04-07T03:46:26;3.03;;;2.60;;
13406;SDS011;6774;48.208;10.766;2023-04-07T03:48:54;3.27;;;2.30;;
13406;SDS011;6774;48.208;10.766;2023-04-07T03:51:22;2.10;;;1.90;;
13406;SDS011;6774;48.208;10.766;2023-04-07T03:53:53;2.53;;;2.40;;
13406;SDS011;6774;48.208;10.766;2023-04-07T03:56:30;2.47;;;2.27;;
13406;SDS011;6774;48.208;10.766;2023-04-07T03:58:58;2.97;;;2.73;;
13406;SDS011;6774;48.208;10.766;2023-04-07T04:01:33;3.83;;;3.53;;
13406;SDS011;6774;48.208;10.766;2023-04-07T04:04:09;2.57;;;2.37;;
13406;SDS011;6774;48.208;10.766;2023-04-07T04:06:38;3.37;;;3.07;;
13406;SDS011;6774;48.208;10.766;2023-04-07T04:09:41;2.47;;;2.37;;
13406;SDS011;6774;48.208;10.766;2023-04-07T04:12:12;2.00;;;1.90;;
13406;SDS011;6774;48.208;10.766;2023-04-07T04:14:49;2.90;;;2.70;;
13406;SDS011;6774;48.208;10.766;2023-04-07T04:17:17;2.73;;;2.33;;
13406;SDS011;6774;48.208;10.766;2023-04-07T04:19:45;2.23;;;2.10;;
13406;SDS011;6774;48.208;10.766;2023-04-07T04:22:21;3.30;;;2.60;;
13406;SDS011;6774;48.208;10.766;2023-04-07T04:24:52;2.20;;;2.10;;
13406;SDS011;6774;48.208;10.766;2023-04-07T04:27:23;2.57;;;2.37;;
13406;SDS011;6774;48.208;10.766;2023-04-07T04:29:59;3.23;;;3.07;;
13406;SDS011;6774;48.208;10.766;2023-04-07T04:32:35;2.63;;;2.43;;
13406;SDS011;6774;48.208;10.766;2023-04-07T04:35:04;2.37;;;2.23;;
13406;SDS011;6774;48.208;10.766;2023-04-07T04:37:39;2.77;;;2.57;;
13406;SDS011;6774;48.208;10.766;2023-04-07T04:40:10;1.63;;;1.53;;
13406;SDS011;6774;48.208;10.766;2023-04-07T04:42:40;1.83;;;1.73;;
13406;SDS011;6774;48.208;10.766;2023-04-07T04:45:10;2.57;;;1.93;;
13406;SDS011;6774;48.208;10.766;2023-04-07T04:47:42;3.47;;;3.17;;
13406;SDS011;6774;48.208;10.766;2023-04-07T04:50:10;6.93;;;6.33;;
13406;SDS011;6774;48.208;10.766;2023-04-07T04:52:40;4.13;;;3.83;;
13406;SDS011;6774;48.208;10.766;2023-04-07T04:55:16;2.90;;;2.60;;
13406;SDS011;6774;48.208;10.766;2023-04-07T04:57:46;2.40;;;2.20;;
13406;SDS011;6774;48.208;10.766;2023-04-07T05:00:20;2.97;;;2.77;;
13406;SDS011;6774;48.208;10.766;2023-04-07T05:02:54;4.00;;;3.60;;
13406;SDS011;6774;48.208;10.766;2023-04-07T05:05:23;3.03;;;2.83;;
13406;SDS011;6774;48.208;10.766;2023-04-07T05:07:53;3.57;;;3.33;;
13406;SDS011;6774;48.208;10.766;2023-04-07T05:10:24;3.73;;;3.47;;
13406;SDS011;6774;48.208;10.766;2023-04-07T05:12:54;3.50;;;3.30;;
13406;SDS011;6774;48.208;10.766;2023-04-07T05:15:22;4.10;;;3.80;;
13406;SDS011;6774;48.208;10.766;2023-04-07T05:17:50;3.40;;;3.10;;
13406;SDS011;6774;48.208;10.766;2023-04-07T05:20:24;3.30;;;3.10;;
13406;SDS011;6774;48.208;10.766;2023-04-07T05:22:53;3.53;;;3.23;;
13406;SDS011;6774;48.208;10.766;2023-04-07T05:25:26;3.47;;;3.27;;
13406;SDS011;6774;48.208;10.766;2023-04-07T05:27:59;3.90;;;3.60;;
13406;SDS011;6774;48.208;10.766;2023-04-07T05:30:27;3.90;;;3.30;;
13406;SDS011;6774;48.208;10.766;2023-04-07T05:32:55;3.30;;;3.10;;
13406;SDS011;6774;48.208;10.766;2023-04-07T05:35:44;3.90;;;3.60;;
13406;SDS011;6774;48.208;10.766;2023-04-07T05:38:13;3.93;;;3.67;;
13406;SDS011;6774;48.208;10.766;2023-04-07T05:40:42;3.33;;;3.03;;
13406;SDS011;6774;48.208;10.766;2023-04-07T05:43:17;4.93;;;4.50;;
13406;SDS011;6774;48.208;10.766;2023-04-07T05:45:46;3.97;;;3.67;;
13406;SDS011;6774;48.208;10.766;2023-04-07T05:48:14;4.43;;;4.13;;
13406;SDS011;6774;48.208;10.766;2023-04-07T05:50:44;3.77;;;2.93;;
13406;SDS011;6774;48.208;10.766;2023-04-07T05:53:15;3.40;;;3.20;;
13406;SDS011;6774;48.208;10.766;2023-04-07T05:55:43;3.83;;;3.33;;
13406;SDS011;6774;48.208;10.766;2023-04-07T05:58:21;4.13;;;3.83;;
13406;SDS011;6774;48.208;10.766;2023-04-07T06:00:52;3.60;;;3.40;;
13406;SDS011;6774;48.208;10.766;2023-04-07T06:03:20;3.80;;;3.50;;
13406;SDS011;6774;48.208;10.766;2023-04-07T06:05:58;4.63;;;4.00;;
13406;SDS011;6774;48.208;10.766;2023-04-07T06:08:26;4.03;;;3.73;;
13406;SDS011;6774;48.208;10.766;2023-04-07T06:10:54;4.07;;;3.77;;
13406;SDS011;6774;48.208;10.766;2023-04-07T06:13:23;4.10;;;3.90;;
13406;SDS011;6774;48.208;10.766;2023-04-07T06:15:53;4.67;;;4.27;;
13406;SDS011;6774;48.208;10.766;2023-04-07T06:18:21;3.43;;;3.23;;
13406;SDS011;6774;48.208;10.766;2023-04-07T06:20:48;4.47;;;4.07;;
13406;SDS011;6774;48.208;10.766;2023-04-07T06:23:17;5.30;;;4.97;;
13406;SDS011;6774;48.208;10.766;2023-04-07T06:25:44;4.00;;;3.70;;
13406;SDS011;6774;48.208;10.766;2023-04-07T06:28:17;4.10;;;3.80;;
13406;SDS011;6774;48.208;10.766;2023-04-07T06:30:46;5.03;;;4.63;;
13406;SDS011;6774;48.208;10.766;2023-04-07T06:33:14;4.67;;;4.27;;
13406;SDS011;6774;48.208;10.766;2023-04-07T06:35:42;4.60;;;4.23;;
13406;SDS011;6774;48.208;10.766;2023-04-07T06:38:11;6.00;;;4.90;;
13406;SDS011;6774;48.208;10.766;2023-04-07T06:40:38;3.80;;;3.50;;
13406;SDS011;6774;48.208;10.766;2023-04-07T06:43:06;3.97;;;3.67;;
13406;SDS011;6774;48.208;10.766;2023-04-07T06:45:41;3.90;;;3.60;;
13406;SDS011;6774;48.208;10.766;2023-04-07T06:48:10;5.27;;;4.87;;
13406;SDS011;6774;48.208;10.766;2023-04-07T06:50:38;6.17;;;4.70;;
13406;SDS011;6774;48.208;10.766;2023-04-07T06:53:06;4.80;;;4.40;;
13406;SDS011;6774;48.208;10.766;2023-04-07T06:55:33;6.87;;;4.47;;
13406;SDS011;6774;48.208;10.766;2023-04-07T06:58:01;5.73;;;5.33;;
13406;SDS011;6774;48.208;10.766;2023-04-07T07:00:29;4.17;;;3.77;;
13406;SDS011;6774;48.208;10.766;2023-04-07T07:02:56;5.30;;;4.90;;
13406;SDS011;6774;48.208;10.766;2023-04-07T07:05:26;6.13;;;5.53;;
13406;SDS011;6774;48.208;10.766;2023-04-07T07:07:53;4.70;;;3.77;;
13406;SDS011;6774;48.208;10.766;2023-04-07T07:10:21;5.50;;;5.10;;
13406;SDS011;6774;48.208;10.766;2023-04-07T07:12:49;4.80;;;4.40;;
13406;SDS011;6774;48.208;10.766;2023-04-07T07:15:17;6.00;;;4.57;;
13406;SDS011;6774;48.208;10.766;2023-04-07T07:17:45;5.33;;;4.93;;
13406;SDS011;6774;48.208;10.766;2023-04-07T07:20:13;4.97;;;4.57;;
13406;SDS011;6774;48.208;10.766;2023-04-07T07:22:42;6.50;;;5.93;;
13406;SDS011;6774;48.208;10.766;2023-04-07T07:25:10;5.67;;;5.17;;
13406;SDS011;6774;48.208;10.766;2023-04-07T07:27:37;5.97;;;5.37;;
13406;SDS011;6774;48.208;10.766;2023-04-07T07:30:05;5.73;;;5.23;;
13406;SDS011;6774;48.208;10.766;2023-04-07T07:32:34;5.93;;;5.23;;
13406;SDS011;6774;48.208;10.766;2023-04-07T07:35:01;6.53;;;6.03;;
13406;SDS011;6774;48.208;10.766;2023-04-07T07:37:29;6.43;;;5.83;;
13406;SDS011;6774;48.208;10.766;2023-04-07T07:39:58;7.93;;;7.17;;
13406;SDS011;6774;48.208;10.766;2023-04-07T07:42:26;7.67;;;7.07;;
13406;SDS011;6774;48.208;10.766;2023-04-07T07:44:53;5.70;;;5.07;;
13406;SDS011;6774;48.208;10.766;2023-04-07T07:47:21;3.57;;;3.37;;
13406;SDS011;6774;48.208;10.766;2023-04-07T07:49:49;4.70;;;4.40;;
13406;SDS011;6774;48.208;10.766;2023-04-07T07:52:16;4.07;;;3.80;;
13406;SDS011;6774;48.208;10.766;2023-04-07T07:54:46;17.23;;;5.37;;
13406;SDS011;6774;48.208;10.766;2023-04-07T07:57:15;4.27;;;3.97;;
13406;SDS011;6774;48.208;10.766;2023-04-07T07:59:43;5.20;;;4.57;;
13406;SDS011;6774;48.208;10.766;2023-04-07T08:02:11;4.47;;;4.07;;
13406;SDS011;6774;48.208;10.766;2023-04-07T08:04:39;3.83;;;3.57;;
13406;SDS011;6774;48.208;10.766;2023-04-07T08:07:07;4.90;;;4.50;;
13406;SDS011;6774;48.208;10.766;2023-04-07T08:09:36;4.80;;;3.77;;
13406;SDS011;6774;48.208;10.766;2023-04-07T08:12:04;3.30;;;3.10;;
13406;SDS011;6774;48.208;10.766;2023-04-07T08:14:33;6.03;;;4.70;;
13406;SDS011;6774;48.208;10.766;2023-04-07T08:17:01;3.17;;;2.93;;
13406;SDS011;6774;48.208;10.766;2023-04-07T08:19:29;4.00;;;3.70;;
13406;SDS011;6774;48.208;10.766;2023-04-07T08:21:56;3.33;;;3.03;;
13406;SDS011;6774;48.208;10.766;2023-04-07T08:24:24;4.07;;;3.77;;
13406;SDS011;6774;48.208;10.766;2023-04-07T08:26:52;3.47;;;3.27;;
13406;SDS011;6774;48.208;10.766;2023-04-07T08:29:19;5.77;;;3.40;;
13406;SDS011;6774;48.208;10.766;2023-04-07T08:31:48;3.30;;;3.10;;
13406;SDS011;6774;48.208;10.766;2023-04-07T08:34:16;4.83;;;4.53;;
13406;SDS011;6774;48.208;10.766;2023-04-07T08:36:46;4.30;;;3.97;;
13406;SDS011;6774;48.208;10.766;2023-04-07T08:39:13;4.67;;;3.50;;
13406;SDS011;6774;48.208;10.766;2023-04-07T08:41:41;4.00;;;3.80;;
13406;SDS011;6774;48.208;10.766;2023-04-07T08:44:10;4.77;;;4.37;;
13406;SDS011;6774;48.208;10.766;2023-04-07T08:46:39;4.07;;;3.87;;
13406;SDS011;6774;48.208;10.766;2023-04-07T08:49:09;3.73;;;3.53;;
13406;SDS011;6774;48.208;10.766;2023-04-07T08:51:42;15.77;;;4.87;;
13406;SDS011;6774;48.208;10.766;2023-04-07T08:54:12;3.40;;;3.20;;
13406;SDS011;6774;48.208;10.766;2023-04-07T08:56:41;3.37;;;3.17;;
13406;SDS011;6774;48.208;10.766;2023-04-07T08:59:10;4.73;;;4.37;;
13406;SDS011;6774;48.208;10.766;2023-04-07T09:01:39;3.97;;;2.77;;
13406;SDS011;6774;48.208;10.766;2023-04-07T09:04:09;3.90;;;3.67;;
13406;SDS011;6774;48.208;10.766;2023-04-07T09:06:37;3.07;;;2.87;;
13406;SDS011;6774;48.208;10.766;2023-04-07T09:09:04;3.33;;;3.13;;
13406;SDS011;6774;48.208;10.766;2023-04-07T09:11:33;4.43;;;4.13;;
13406;SDS011;6774;48.208;10.766;2023-04-07T09:14:02;5.43;;;3.50;;
13406;SDS011;6774;48.208;10.766;2023-04-07T09:16:30;4.03;;;3.83;;
13406;SDS011;6774;48.208;10.766;2023-04-07T09:18:58;3.50;;;3.23;;
13406;SDS011;6774;48.208;10.766;2023-04-07T09:21:27;3.70;;;3.50;;
13406;SDS011;6774;48.208;10.766;2023-04-07T09:24:20;3.40;;;3.20;;
13406;SDS011;6774;48.208;10.766;2023-04-07T09:26:49;3.20;;;3.10;;
13406;SDS011;6774;48.208;10.766;2023-04-07T09:29:19;3.50;;;3.20;;
13406;SDS011;6774;48.208;10.766;2023-04-07T09:31:48;3.43;;;3.23;;
13406;SDS011;6774;48.208;10.766;2023-04-07T09:34:23;3.10;;;2.90;;
13406;SDS011;6774;48.208;10.766;2023-04-07T09:36:53;3.13;;;2.93;;
13406;SDS011;6774;48.208;10.766;2023-04-07T09:39:20;3.53;;;3.37;;
13406;SDS011;6774;48.208;10.766;2023-04-07T09:41:49;2.70;;;2.60;;
13406;SDS011;6774;48.208;10.766;2023-04-07T09:44:17;3.00;;;2.80;;
13406;SDS011;6774;48.208;10.766;2023-04-07T09:46:48;2.93;;;2.33;;
13406;SDS011;6774;48.208;10.766;2023-04-07T09:49:16;3.50;;;3.30;;
13406;SDS011;6774;48.208;10.766;2023-04-07T09:51:53;3.33;;;3.03;;
13406;SDS011;6774;48.208;10.766;2023-04-07T09:54:31;2.90;;;2.80;;
13406;SDS011;6774;48.208;10.766;2023-04-07T09:57:01;2.90;;;2.70;;
13406;SDS011;6774;48.208;10.766;2023-04-07T09:59:29;3.10;;;2.90;;
13406;SDS011;6774;48.208;10.766;2023-04-07T10:01:59;3.23;;;2.93;;
13406;SDS011;6774;48.208;10.766;2023-04-07T10:04:27;3.67;;;3.47;;
13406;SDS011;6774;48.208;10.766;2023-04-07T10:06:57;2.27;;;2.17;;
13406;SDS011;6774;48.208;10.766;2023-04-07T10:09:26;2.57;;;2.37;;
13406;SDS011;6774;48.208;10.766;2023-04-07T10:11:55;1.70;;;1.60;;
13406;SDS011;6774;48.208;10.766;2023-04-07T10:14:26;2.53;;;2.30;;
13406;SDS011;6774;48.208;10.766;2023-04-07T10:17:12;4.13;;;3.63;;
13406;SDS011;6774;48.208;10.766;2023-04-07T10:19:44;4.33;;;4.13;;
13406;SDS011;6774;48.208;10.766;2023-04-07T10:22:14;3.73;;;3.53;;
13406;SDS011;6774;48.208;10.766;2023-04-07T10:24:45;2.17;;;2.07;;
13406;SDS011;6774;48.208;10.766;2023-04-07T10:27:21;2.70;;;2.57;;
13406;SDS011;6774;48.208;10.766;2023-04-07T10:29:50;2.50;;;2.37;;
13406;SDS011;6774;48.208;10.766;2023-04-07T10:32:19;2.83;;;2.73;;
13406;SDS011;6774;48.208;10.766;2023-04-07T10:34:56;2.60;;;2.40;;
13406;SDS011;6774;48.208;10.766;2023-04-07T10:37:28;3.63;;;3.40;;
13406;SDS011;6774;48.208;10.766;2023-04-07T10:42:54;3.70;;;3.30;;
13406;SDS011;6774;48.208;10.766;2023-04-07T10:48:27;4.73;;;2.97;;
13406;SDS011;6774;48.208;10.766;2023-04-07T10:51:11;3.97;;;2.93;;
13406;SDS011;6774;48.208;10.766;2023-04-07T10:57:06;2.30;;;2.20;;
13406;SDS011;6774;48.208;10.766;2023-04-07T10:59:40;3.10;;;2.90;;
13406;SDS011;6774;48.208;10.766;2023-04-07T11:05:00;3.60;;;3.40;;
13406;SDS011;6774;48.208;10.766;2023-04-07T11:10:30;2.10;;;2.00;;
13406;SDS011;6774;48.208;10.766;2023-04-07T11:13:06;3.10;;;2.90;;
13406;SDS011;6774;48.208;10.766;2023-04-07T11:15:35;2.80;;;2.60;;
13406;SDS011;6774;48.208;10.766;2023-04-07T11:18:10;2.90;;;2.50;;
13406;SDS011;6774;48.208;10.766;2023-04-07T11:20:40;2.57;;;2.37;;
13406;SDS011;6774;48.208;10.766;2023-04-07T11:23:11;2.33;;;2.13;;
13406;SDS011;6774;48.208;10.766;2023-04-07T11:25:40;2.97;;;2.40;;
13406;SDS011;6774;48.208;10.766;2023-04-07T11:28:12;4.47;;;4.07;;
13406;SDS011;6774;48.208;10.766;2023-04-07T11:30:43;4.53;;;4.23;;
13406;SDS011;6774;48.208;10.766;2023-04-07T11:33:14;5.40;;;5.00;;
13406;SDS011;6774;48.208;10.766;2023-04-07T11:35:47;4.07;;;3.80;;
13406;SDS011;6774;48.208;10.766;2023-04-07T11:38:21;4.77;;;4.47;;
13406;SDS011;6774;48.208;10.766;2023-04-07T11:40:50;3.37;;;3.07;;
13406;SDS011;6774;48.208;10.766;2023-04-07T11:43:20;3.20;;;2.90;;
13406;SDS011;6774;48.208;10.766;2023-04-07T11:46:04;3.10;;;2.90;;
13406;SDS011;6774;48.208;10.766;2023-04-07T11:48:34;8.97;;;5.03;;
13406;SDS011;6774;48.208;10.766;2023-04-07T11:51:03;3.60;;;3.40;;
13406;SDS011;6774;48.208;10.766;2023-04-07T11:53:32;4.37;;;3.57;;
13406;SDS011;6774;48.208;10.766;2023-04-07T11:56:03;4.10;;;3.90;;
13406;SDS011;6774;48.208;10.766;2023-04-07T11:58:36;2.77;;;2.47;;
13406;SDS011;6774;48.208;10.766;2023-04-07T12:01:04;4.13;;;3.83;;
13406;SDS011;6774;48.208;10.766;2023-04-07T12:03:35;2.83;;;2.63;;
13406;SDS011;6774;48.208;10.766;2023-04-07T12:06:03;2.17;;;2.03;;
13406;SDS011;6774;48.208;10.766;2023-04-07T12:08:35;2.53;;;2.43;;
13406;SDS011;6774;48.208;10.766;2023-04-07T12:11:07;2.47;;;2.33;;
13406;SDS011;6774;48.208;10.766;2023-04-07T12:13:38;3.53;;;2.33;;
13406;SDS011;6774;48.208;10.766;2023-04-07T12:16:06;2.57;;;2.47;;
13406;SDS011;6774;48.208;10.766;2023-04-07T12:18:34;5.10;;;3.33;;
13406;SDS011;6774;48.208;10.766;2023-04-07T12:21:02;3.27;;;3.17;;
13406;SDS011;6774;48.208;10.766;2023-04-07T12:23:30;3.03;;;2.83;;
13406;SDS011;6774;48.208;10.766;2023-04-07T12:25:58;3.40;;;3.20;;
13406;SDS011;6774;48.208;10.766;2023-04-07T12:28:26;3.33;;;3.03;;
13406;SDS011;6774;48.208;10.766;2023-04-07T12:30:55;2.87;;;2.77;;
13406;SDS011;6774;48.208;10.766;2023-04-07T12:33:23;3.20;;;3.00;;
13406;SDS011;6774;48.208;10.766;2023-04-07T12:35:51;2.37;;;2.17;;
13406;SDS011;6774;48.208;10.766;2023-04-07T12:38:19;2.67;;;2.57;;
13406;SDS011;6774;48.208;10.766;2023-04-07T12:40:47;4.30;;;3.97;;
13406;SDS011;6774;48.208;10.766;2023-04-07T12:43:14;3.00;;;2.80;;
13406;SDS011;6774;48.208;10.766;2023-04-07T12:45:42;3.20;;;3.00;;
13406;SDS011;6774;48.208;10.766;2023-04-07T12:48:11;3.70;;;3.50;;
13406;SDS011;6774;48.208;10.766;2023-04-07T12:50:39;2.97;;;2.83;;
13406;SDS011;6774;48.208;10.766;2023-04-07T12:53:06;2.73;;;2.60;;
13406;SDS011;6774;48.208;10.766;2023-04-07T12:55:34;3.33;;;2.07;;
13406;SDS011;6774;48.208;10.766;2023-04-07T12:58:02;1.83;;;1.73;;
13406;SDS011;6774;48.208;10.766;2023-04-07T13:00:30;1.87;;;1.77;;
13406;SDS011;6774;48.208;10.766;2023-04-07T13:02:58;1.57;;;1.47;;
13406;SDS011;6774;48.208;10.766;2023-04-07T13:05:27;2.40;;;0.90;;
13406;SDS011;6774;48.208;10.766;2023-04-07T13:07:55;1.20;;;1.13;;
13406;SDS011;6774;48.208;10.766;2023-04-07T13:10:23;1.10;;;1.10;;
13406;SDS011;6774;48.208;10.766;2023-04-07T13:12:50;1.30;;;1.30;;
13406;SDS011;6774;48.208;10.766;2023-04-07T13:15:18;2.70;;;0.80;;
13406;SDS011;6774;48.208;10.766;2023-04-07T13:17:46;3.87;;;1.53;;
13406;SDS011;6774;48.208;10.766;2023-04-07T13:20:14;1.40;;;0.87;;
13406;SDS011;6774;48.208;10.766;2023-04-07T13:22:47;2.20;;;0.97;;
13406;SDS011;6774;48.208;10.766;2023-04-07T13:25:31;1.97;;;1.87;;
13406;SDS011;6774;48.208;10.766;2023-04-07T13:27:58;1.10;;;1.10;;
13406;SDS011;6774;48.208;10.766;2023-04-07T13:30:26;2.03;;;1.83;;
13406;SDS011;6774;48.208;10.766;2023-04-07T13:32:54;1.60;;;1.50;;
13406;SDS011;6774;48.208;10.766;2023-04-07T13:35:22;0.87;;;0.87;;
13406;SDS011;6774;48.208;10.766;2023-04-07T13:37:51;1.10;;;1.00;;
13406;SDS011;6774;48.208;10.766;2023-04-07T13:40:19;0.83;;;0.83;;
13406;SDS011;6774;48.208;10.766;2023-04-07T13:42:46;0.90;;;0.90;;
13406;SDS011;6774;48.208;10.766;2023-04-07T13:45:14;0.77;;;0.70;;
13406;SDS011;6774;48.208;10.766;2023-04-07T13:47:42;2.03;;;1.93;;
13406;SDS011;6774;48.208;10.766;2023-04-07T13:50:09;1.00;;;0.90;;
13406;SDS011;6774;48.208;10.766;2023-04-07T13:52:37;0.97;;;0.90;;
13406;SDS011;6774;48.208;10.766;2023-04-07T13:55:07;1.50;;;1.03;;
13406;SDS011;6774;48.208;10.766;2023-04-07T13:57:35;1.00;;;0.80;;
13406;SDS011;6774;48.208;10.766;2023-04-07T14:00:03;0.80;;;0.80;;
13406;SDS011;6774;48.208;10.766;2023-04-07T14:02:34;0.87;;;0.60;;
13406;SDS011;6774;48.208;10.766;2023-04-07T14:05:02;1.97;;;0.87;;
13406;SDS011;6774;48.208;10.766;2023-04-07T14:07:29;0.53;;;0.53;;
13406;SDS011;6774;48.208;10.766;2023-04-07T14:09:57;1.33;;;1.07;;
13406;SDS011;6774;48.208;10.766;2023-04-07T14:12:26;1.27;;;1.17;;
13406;SDS011;6774;48.208;10.766;2023-04-07T14:14:54;4.20;;;1.67;;
13406;SDS011;6774;48.208;10.766;2023-04-07T14:17:22;0.70;;;0.70;;
13406;SDS011;6774;48.208;10.766;2023-04-07T14:19:50;0.90;;;0.90;;
13406;SDS011;6774;48.208;10.766;2023-04-07T14:22:17;1.27;;;0.87;;
13406;SDS011;6774;48.208;10.766;2023-04-07T14:24:45;1.20;;;0.93;;
13406;SDS011;6774;48.208;10.766;2023-04-07T14:27:13;1.40;;;0.90;;
13406;SDS011;6774;48.208;10.766;2023-04-07T14:29:47;0.50;;;0.50;;
13406;SDS011;6774;48.208;10.766;2023-04-07T14:32:15;1.80;;;1.50;;
13406;SDS011;6774;48.208;10.766;2023-04-07T14:34:43;0.40;;;0.40;;
13406;SDS011;6774;48.208;10.766;2023-04-07T14:37:11;0.97;;;0.30;;
13406;SDS011;6774;48.208;10.766;2023-04-07T14:39:39;0.90;;;0.57;;
13406;SDS011;6774;48.208;10.766;2023-04-07T14:42:21;0.53;;;0.43;;
13406;SDS011;6774;48.208;10.766;2023-04-07T14:44:50;2.30;;;0.60;;
13406;SDS011;6774;48.208;10.766;2023-04-07T14:47:18;1.03;;;0.87;;
13406;SDS011;6774;48.208;10.766;2023-04-07T14:49:46;1.10;;;1.00;;
13406;SDS011;6774;48.208;10.766;2023-04-07T14:52:18;0.50;;;0.50;;
13406;SDS011;6774;48.208;10.766;2023-04-07T14:54:46;1.90;;;1.80;;
13406;SDS011;6774;48.208;10.766;2023-04-07T14:57:14;0.73;;;0.73;;
13406;SDS011;6774;48.208;10.766;2023-04-07T14:59:42;1.57;;;1.47;;
13406;SDS011;6774;48.208;10.766;2023-04-07T15:02:12;1.03;;;1.03;;
13406;SDS011;6774;48.208;10.766;2023-04-07T15:04:39;1.23;;;0.73;;
13406;SDS011;6774;48.208;10.766;2023-04-07T15:07:07;0.77;;;0.77;;
13406;SDS011;6774;48.208;10.766;2023-04-07T15:09:35;3.27;;;2.17;;
13406;SDS011;6774;48.208;10.766;2023-04-07T15:12:03;1.70;;;1.60;;
13406;SDS011;6774;48.208;10.766;2023-04-07T15:14:30;1.67;;;1.57;;
13406;SDS011;6774;48.208;10.766;2023-04-07T15:16:58;1.80;;;1.17;;
13406;SDS011;6774;48.208;10.766;2023-04-07T15:19:27;1.53;;;1.43;;